createdAt,value
2022-08-27T00:00:06.786Z,987.18
2022-08-27T00:01:08.922Z,987.14
2022-08-27T00:02:07.841Z,987.10
2022-08-27T00:03:06.757Z,987.11
2022-08-27T00:04:06.786Z,987.11
2022-08-27T00:05:06.738Z,987.11
2022-08-27T00:06:06.740Z,987.07
2022-08-27T00:07:06.729Z,987.08
2022-08-27T00:08:06.769Z,987.08
2022-08-27T00:09:06.694Z,987.08
2022-08-27T00:10:06.685Z,987.07
2022-08-27T00:11:06.673Z,987.06
2022-08-27T00:12:06.679Z,987.07
2022-08-27T00:13:06.652Z,987.09
2022-08-27T00:14:06.647Z,987.15
2022-08-27T00:15:06.632Z,987.14
2022-08-27T00:16:06.713Z,987.11
2022-08-27T00:17:06.630Z,987.14
2022-08-27T00:18:06.718Z,987.14
2022-08-27T00:19:06.596Z,987.11
2022-08-27T00:20:06.587Z,987.16
2022-08-27T00:21:06.932Z,987.18
2022-08-27T00:22:06.578Z,987.14
2022-08-27T00:23:06.554Z,987.14
2022-08-27T00:24:06.543Z,987.15
2022-08-27T00:25:06.530Z,987.16
2022-08-27T00:26:06.522Z,987.14
2022-08-27T00:27:06.527Z,987.14
2022-08-27T00:28:06.538Z,987.16
2022-08-27T00:29:06.494Z,987.11
2022-08-27T00:30:06.487Z,987.14
2022-08-27T00:31:06.481Z,987.11
2022-08-27T00:32:06.518Z,987.15
2022-08-27T00:33:06.448Z,987.10
2022-08-27T00:34:06.442Z,987.17
2022-08-27T00:35:06.441Z,987.15
2022-08-27T00:36:06.428Z,987.14
2022-08-27T00:37:06.430Z,987.17
2022-08-27T00:38:06.424Z,987.14
2022-08-27T00:39:06.391Z,987.15
2022-08-27T00:40:06.443Z,987.11
2022-08-27T00:41:06.372Z,987.11
2022-08-27T00:42:06.378Z,987.07
2022-08-27T00:43:06.350Z,987.12
2022-08-27T00:44:06.380Z,987.03
2022-08-27T00:45:06.328Z,987.03
2022-08-27T00:46:06.373Z,987.04
2022-08-27T00:47:06.325Z,987.02
2022-08-27T00:48:06.305Z,987.03
2022-08-27T00:49:06.291Z,987.01
2022-08-27T00:50:06.279Z,987.01
2022-08-27T00:51:06.267Z,987.01
2022-08-27T00:52:06.277Z,987.03
2022-08-27T00:53:06.248Z,987.02
2022-08-27T00:54:06.240Z,987.03
2022-08-27T00:55:06.230Z,986.99
2022-08-27T00:56:06.224Z,986.98
2022-08-27T00:57:06.228Z,987.01
2022-08-27T00:58:06.198Z,986.98
2022-08-27T00:59:06.218Z,986.96
2022-08-27T01:00:06.180Z,986.98
2022-08-27T01:01:06.266Z,986.95
2022-08-27T01:02:06.240Z,986.95
2022-08-27T01:03:06.162Z,986.93
2022-08-27T01:04:06.139Z,986.90
2022-08-27T01:05:06.126Z,986.98
2022-08-27T01:06:06.123Z,986.93
2022-08-27T01:07:06.120Z,986.94
2022-08-27T01:08:06.096Z,986.93
2022-08-27T01:09:06.088Z,986.90
2022-08-27T01:10:06.076Z,986.91
2022-08-27T01:11:06.063Z,986.91
2022-08-27T01:12:06.074Z,986.89
2022-08-27T01:13:06.056Z,986.92
2022-08-27T01:14:06.037Z,986.94
2022-08-27T01:15:06.027Z,986.88
2022-08-27T01:16:06.074Z,986.85
2022-08-27T01:17:06.026Z,986.83
2022-08-27T01:18:05.997Z,986.83
2022-08-27T01:19:05.986Z,986.83
2022-08-27T01:20:05.971Z,986.84
2022-08-27T01:21:05.964Z,986.83
2022-08-27T01:22:05.974Z,986.85
2022-08-27T01:23:05.946Z,986.87
2022-08-27T01:24:05.939Z,986.81
2022-08-27T01:25:05.925Z,986.84
2022-08-27T01:26:05.911Z,986.81
2022-08-27T01:27:05.910Z,986.84
2022-08-27T01:28:06.981Z,986.82
2022-08-27T01:29:05.879Z,986.82
2022-08-27T01:30:05.876Z,986.78
2022-08-27T01:31:05.877Z,986.73
2022-08-27T01:32:05.884Z,986.73
2022-08-27T01:33:05.839Z,986.73
2022-08-27T01:34:05.831Z,986.74
2022-08-27T01:35:05.821Z,986.73
2022-08-27T01:36:05.815Z,986.71
2022-08-27T01:37:05.813Z,986.71
2022-08-27T01:38:05.792Z,986.68
2022-08-27T01:39:05.779Z,986.66
2022-08-27T01:40:05.822Z,986.67
2022-08-27T01:41:05.755Z,986.65
2022-08-27T01:42:05.783Z,986.64
2022-08-27T01:43:05.742Z,986.63
2022-08-27T01:44:05.728Z,986.58
2022-08-27T01:45:06.074Z,986.59
2022-08-27T01:46:05.704Z,986.59
2022-08-27T01:47:05.707Z,986.58
2022-08-27T01:48:05.685Z,986.59
2022-08-27T01:49:05.676Z,986.61
2022-08-27T01:50:05.665Z,986.59
2022-08-27T01:51:05.651Z,986.61
2022-08-27T01:52:05.666Z,986.59
2022-08-27T01:53:05.631Z,986.62
2022-08-27T01:54:05.627Z,986.62
2022-08-27T01:55:05.609Z,986.62
2022-08-27T01:56:05.628Z,986.67
2022-08-27T01:57:05.604Z,986.72
2022-08-27T01:58:05.579Z,986.72
2022-08-27T01:59:05.568Z,986.67
2022-08-27T02:00:05.559Z,986.68
2022-08-27T02:01:05.646Z,986.70
2022-08-27T02:02:05.625Z,986.60
2022-08-27T02:03:05.529Z,986.61
2022-08-27T02:04:05.519Z,986.62
2022-08-27T02:05:05.504Z,986.59
2022-08-27T02:06:05.497Z,986.61
2022-08-27T02:07:06.158Z,986.61
2022-08-27T02:08:05.475Z,986.62
2022-08-27T02:09:05.465Z,986.67
2022-08-27T02:10:05.454Z,986.62
2022-08-27T02:11:05.444Z,986.64
2022-08-27T02:12:05.460Z,986.62
2022-08-27T02:13:05.431Z,986.63
2022-08-27T02:14:12.902Z,986.58
2022-08-27T02:15:06.403Z,986.64
2022-08-27T02:16:05.455Z,986.55
2022-08-27T02:17:05.425Z,986.56
2022-08-27T02:18:05.374Z,986.59
2022-08-27T02:19:05.378Z,986.58
2022-08-27T02:20:05.350Z,986.60
2022-08-27T02:21:05.449Z,986.57
2022-08-27T02:22:05.335Z,986.55
2022-08-27T02:23:05.336Z,986.56
2022-08-27T02:24:05.316Z,986.57
2022-08-27T02:25:05.320Z,986.58
2022-08-27T02:26:05.302Z,986.52
2022-08-27T02:27:05.278Z,986.49
2022-08-27T02:28:05.268Z,986.50
2022-08-27T02:29:05.255Z,986.48
2022-08-27T02:30:05.248Z,986.51
2022-08-27T02:31:05.768Z,986.50
2022-08-27T02:32:05.227Z,986.49
2022-08-27T02:33:05.215Z,986.51
2022-08-27T02:34:05.207Z,986.51
2022-08-27T02:35:05.194Z,986.45
2022-08-27T02:36:06.009Z,986.46
2022-08-27T02:37:05.176Z,986.47
2022-08-27T02:38:05.165Z,986.49
2022-08-27T02:39:05.151Z,986.47
2022-08-27T02:40:05.216Z,986.48
2022-08-27T02:41:05.154Z,986.49
2022-08-27T02:42:05.119Z,986.47
2022-08-27T02:43:05.119Z,986.51
2022-08-27T02:44:05.540Z,986.48
2022-08-27T02:45:06.091Z,986.51
2022-08-27T02:46:05.103Z,986.54
2022-08-27T02:47:05.075Z,986.52
2022-08-27T02:48:05.100Z,986.50
2022-08-27T02:49:05.055Z,986.54
2022-08-27T02:50:05.037Z,986.54
2022-08-27T02:51:05.048Z,986.56
2022-08-27T02:52:05.019Z,986.54
2022-08-27T02:53:05.020Z,986.51
2022-08-27T02:54:04.994Z,986.54
2022-08-27T02:55:04.991Z,986.55
2022-08-27T02:56:04.973Z,986.53
2022-08-27T02:57:04.982Z,986.56
2022-08-27T02:58:04.951Z,986.53
2022-08-27T02:59:04.946Z,986.56
2022-08-27T03:00:04.933Z,986.52
2022-08-27T03:01:04.935Z,986.52
2022-08-27T03:02:05.100Z,986.52
2022-08-27T03:03:04.945Z,986.55
2022-08-27T03:04:04.893Z,986.51
2022-08-27T03:05:04.883Z,986.53
2022-08-27T03:06:04.871Z,986.51
2022-08-27T03:07:04.880Z,986.51
2022-08-27T03:08:04.848Z,986.51
2022-08-27T03:09:04.843Z,986.55
2022-08-27T03:10:04.830Z,986.50
2022-08-27T03:11:04.821Z,986.49
2022-08-27T03:12:04.824Z,986.52
2022-08-27T03:13:04.803Z,986.49
2022-08-27T03:14:04.799Z,986.55
2022-08-27T03:15:04.793Z,986.54
2022-08-27T03:16:04.876Z,986.51
2022-08-27T03:17:04.777Z,986.54
2022-08-27T03:18:04.747Z,986.57
2022-08-27T03:19:04.736Z,986.56
2022-08-27T03:20:04.731Z,986.56
2022-08-27T03:21:04.714Z,986.56
2022-08-27T03:22:04.732Z,986.54
2022-08-27T03:23:04.699Z,986.56
2022-08-27T03:24:11.136Z,986.57
2022-08-27T03:25:05.673Z,986.58
2022-08-27T03:26:04.662Z,986.56
2022-08-27T03:27:04.678Z,986.62
2022-08-27T03:28:04.662Z,986.61
2022-08-27T03:29:04.632Z,986.61
2022-08-27T03:30:04.621Z,986.62
2022-08-27T03:31:04.694Z,986.62
2022-08-27T03:32:04.615Z,986.60
2022-08-27T03:33:04.592Z,986.62
2022-08-27T03:34:04.579Z,986.63
2022-08-27T03:35:04.569Z,986.63
2022-08-27T03:36:04.560Z,986.65
2022-08-27T03:37:04.561Z,986.67
2022-08-27T03:38:04.535Z,986.66
2022-08-27T03:39:04.531Z,986.70
2022-08-27T03:40:04.586Z,986.65
2022-08-27T03:41:04.507Z,986.65
2022-08-27T03:42:04.508Z,986.67
2022-08-27T03:43:04.485Z,986.72
2022-08-27T03:44:04.480Z,986.62
2022-08-27T03:45:04.463Z,986.70
2022-08-27T03:46:04.454Z,986.64
2022-08-27T03:47:04.456Z,986.66
2022-08-27T03:48:04.434Z,986.68
2022-08-27T03:49:04.439Z,986.70
2022-08-27T03:50:04.412Z,986.66
2022-08-27T03:51:04.402Z,986.68
2022-08-27T03:52:04.487Z,986.65
2022-08-27T03:53:04.380Z,986.67
2022-08-27T03:54:04.367Z,986.69
2022-08-27T03:55:04.359Z,986.70
2022-08-27T03:56:04.346Z,986.70
2022-08-27T03:57:04.355Z,986.70
2022-08-27T03:58:04.325Z,986.74
2022-08-27T03:59:04.319Z,986.73
2022-08-27T04:00:04.303Z,986.73
2022-08-27T04:01:04.294Z,986.72
2022-08-27T04:02:04.380Z,986.76
2022-08-27T04:03:04.340Z,986.76
2022-08-27T04:04:04.266Z,986.74
2022-08-27T04:05:04.254Z,986.79
2022-08-27T04:06:04.244Z,986.80
2022-08-27T04:07:04.247Z,986.78
2022-08-27T04:08:04.220Z,986.82
2022-08-27T04:09:04.208Z,986.80
2022-08-27T04:10:04.203Z,986.79
2022-08-27T04:11:04.191Z,986.79
2022-08-27T04:12:04.195Z,986.79
2022-08-27T04:13:04.169Z,986.77
2022-08-27T04:14:04.155Z,986.78
2022-08-27T04:15:05.147Z,986.79
2022-08-27T04:16:04.194Z,986.87
2022-08-27T04:17:04.141Z,986.79
2022-08-27T04:18:04.181Z,986.80
2022-08-27T04:19:04.105Z,986.83
2022-08-27T04:20:24.883Z,986.82
2022-08-27T04:21:05.084Z,986.84
2022-08-27T04:22:04.084Z,986.83
2022-08-27T04:23:04.084Z,986.81
2022-08-27T04:24:04.067Z,986.81
2022-08-27T04:25:04.040Z,986.82
2022-08-27T04:26:05.028Z,986.83
2022-08-27T04:27:04.036Z,986.87
2022-08-27T04:28:04.079Z,986.84
2022-08-27T04:29:04.001Z,986.85
2022-08-27T04:30:03.987Z,986.87
2022-08-27T04:31:04.092Z,986.89
2022-08-27T04:32:03.981Z,986.90
2022-08-27T04:33:03.958Z,986.89
2022-08-27T04:34:03.950Z,986.89
2022-08-27T04:35:03.943Z,986.89
2022-08-27T04:36:03.929Z,986.87
2022-08-27T04:37:03.933Z,986.88
2022-08-27T04:38:03.995Z,986.91
2022-08-27T04:39:03.897Z,986.89
2022-08-27T04:40:04.966Z,986.87
2022-08-27T04:41:03.882Z,986.87
2022-08-27T04:42:03.875Z,986.91
2022-08-27T04:43:03.851Z,986.87
2022-08-27T04:44:03.844Z,986.92
2022-08-27T04:45:03.834Z,986.93
2022-08-27T04:46:03.915Z,986.93
2022-08-27T04:47:03.845Z,986.95
2022-08-27T04:48:03.857Z,986.90
2022-08-27T04:49:03.791Z,986.96
2022-08-27T04:50:05.717Z,986.95
2022-08-27T04:51:03.770Z,986.98
2022-08-27T04:52:03.782Z,986.98
2022-08-27T04:53:03.750Z,986.96
2022-08-27T04:54:03.736Z,986.96
2022-08-27T04:55:03.732Z,986.98
2022-08-27T04:56:03.718Z,987.02
2022-08-27T04:57:04.222Z,987.01
2022-08-27T04:58:03.777Z,987.03
2022-08-27T04:59:03.690Z,987.01
2022-08-27T05:00:03.677Z,987.03
2022-08-27T05:01:03.664Z,987.00
2022-08-27T05:02:04.571Z,987.04
2022-08-27T05:03:03.668Z,987.07
2022-08-27T05:04:03.634Z,987.07
2022-08-27T05:05:03.741Z,987.07
2022-08-27T05:06:03.618Z,987.11
2022-08-27T05:07:03.633Z,987.09
2022-08-27T05:08:03.650Z,987.14
2022-08-27T05:09:03.588Z,987.14
2022-08-27T05:10:03.571Z,987.19
2022-08-27T05:11:03.562Z,987.13
2022-08-27T05:12:03.550Z,987.13
2022-08-27T05:13:03.555Z,987.14
2022-08-27T05:14:03.535Z,987.15
2022-08-27T05:15:03.521Z,987.11
2022-08-27T05:16:03.557Z,987.14
2022-08-27T05:17:03.557Z,987.17
2022-08-27T05:18:03.515Z,987.12
2022-08-27T05:19:03.481Z,987.10
2022-08-27T05:20:03.476Z,987.10
2022-08-27T05:21:03.461Z,987.11
2022-08-27T05:22:03.451Z,987.11
2022-08-27T05:23:03.463Z,987.13
2022-08-27T05:24:03.430Z,987.14
2022-08-27T05:25:03.423Z,987.12
2022-08-27T05:26:03.412Z,987.11
2022-08-27T05:27:03.397Z,987.14
2022-08-27T05:28:03.402Z,987.12
2022-08-27T05:29:03.385Z,987.08
2022-08-27T05:30:03.367Z,987.08
2022-08-27T05:31:03.384Z,987.04
2022-08-27T05:32:03.347Z,987.07
2022-08-27T05:33:03.353Z,987.08
2022-08-27T05:34:03.335Z,987.10
2022-08-27T05:35:04.322Z,987.08
2022-08-27T05:36:03.320Z,987.05
2022-08-27T05:37:03.295Z,987.08
2022-08-27T05:38:03.413Z,987.05
2022-08-27T05:39:03.278Z,987.01
2022-08-27T05:40:03.307Z,987.02
2022-08-27T05:41:03.255Z,987.03
2022-08-27T05:42:03.242Z,987.02
2022-08-27T05:43:03.250Z,987.03
2022-08-27T05:44:13.737Z,987.04
2022-08-27T05:45:04.214Z,987.02
2022-08-27T05:46:03.349Z,987.10
2022-08-27T05:47:03.197Z,987.04
2022-08-27T05:48:03.197Z,987.06
2022-08-27T05:49:03.174Z,987.10
2022-08-27T05:50:03.163Z,987.07
2022-08-27T05:51:03.154Z,987.12
2022-08-27T05:52:03.144Z,987.09
2022-08-27T05:53:03.147Z,987.08
2022-08-27T05:54:08.045Z,987.10
2022-08-27T05:55:04.122Z,987.11
2022-08-27T05:56:03.108Z,987.09
2022-08-27T05:57:03.092Z,987.11
2022-08-27T05:58:03.121Z,987.09
2022-08-27T05:59:03.072Z,987.09
2022-08-27T06:00:03.062Z,987.11
2022-08-27T06:01:06.946Z,987.15
2022-08-27T06:02:04.035Z,987.16
2022-08-27T06:03:03.058Z,987.17
2022-08-27T06:04:03.092Z,987.17
2022-08-27T06:05:03.068Z,987.20
2022-08-27T06:06:02.999Z,987.20
2022-08-27T06:07:02.987Z,987.21
2022-08-27T06:08:03.078Z,987.18
2022-08-27T06:09:02.969Z,987.15
2022-08-27T06:10:02.968Z,987.17
2022-08-27T06:11:02.948Z,987.16
2022-08-27T06:12:02.936Z,987.12
2022-08-27T06:13:02.943Z,987.16
2022-08-27T06:14:02.917Z,987.16
2022-08-27T06:15:02.912Z,987.20
2022-08-27T06:16:02.975Z,987.21
2022-08-27T06:17:02.885Z,987.17
2022-08-27T06:18:02.891Z,987.19
2022-08-27T06:19:02.871Z,987.19
2022-08-27T06:20:02.877Z,987.22
2022-08-27T06:21:02.849Z,987.18
2022-08-27T06:22:10.525Z,987.20
2022-08-27T06:23:03.840Z,987.21
2022-08-27T06:24:02.810Z,987.21
2022-08-27T06:25:02.802Z,987.24
2022-08-27T06:26:02.790Z,987.21
2022-08-27T06:27:02.783Z,987.20
2022-08-27T06:28:02.772Z,987.25
2022-08-27T06:29:02.778Z,987.25
2022-08-27T06:30:02.763Z,987.20
2022-08-27T06:31:02.775Z,987.21
2022-08-27T06:32:02.727Z,987.17
2022-08-27T06:33:02.728Z,987.18
2022-08-27T06:34:07.186Z,987.18
2022-08-27T06:35:02.699Z,987.20
2022-08-27T06:36:02.689Z,987.17
2022-08-27T06:37:02.684Z,987.20
2022-08-27T06:38:02.691Z,987.19
2022-08-27T06:39:02.683Z,987.21
2022-08-27T06:40:02.733Z,987.22
2022-08-27T06:41:02.642Z,987.21
2022-08-27T06:42:02.643Z,987.26
2022-08-27T06:43:02.623Z,987.23
2022-08-27T06:44:02.626Z,987.25
2022-08-27T06:45:02.610Z,987.24
2022-08-27T06:46:02.838Z,987.23
2022-08-27T06:47:02.577Z,987.27
2022-08-27T06:48:02.566Z,987.22
2022-08-27T06:49:02.576Z,987.20
2022-08-27T06:50:02.548Z,987.22
2022-08-27T06:51:02.537Z,987.22
2022-08-27T06:52:02.535Z,987.18
2022-08-27T06:53:02.524Z,987.19
2022-08-27T06:54:02.519Z,987.21
2022-08-27T06:55:02.496Z,987.22
2022-08-27T06:56:02.484Z,987.26
2022-08-27T06:57:02.472Z,987.20
2022-08-27T06:58:02.472Z,987.21
2022-08-27T06:59:02.467Z,987.21
2022-08-27T07:00:02.445Z,987.24
2022-08-27T07:01:02.521Z,987.20
2022-08-27T07:02:02.433Z,987.21
2022-08-27T07:03:02.410Z,987.22
2022-08-27T07:04:02.415Z,987.25
2022-08-27T07:05:02.389Z,987.28
2022-08-27T07:06:02.390Z,987.26
2022-08-27T07:07:02.416Z,987.25
2022-08-27T07:08:02.363Z,987.21
2022-08-27T07:09:02.363Z,987.18
2022-08-27T07:10:02.341Z,987.29
2022-08-27T07:11:02.329Z,987.23
2022-08-27T07:12:02.324Z,987.21
2022-08-27T07:13:02.308Z,987.26
2022-08-27T07:14:02.318Z,987.20
2022-08-27T07:15:02.298Z,987.24
2022-08-27T07:16:02.327Z,987.26
2022-08-27T07:17:02.270Z,987.25
2022-08-27T07:18:02.257Z,987.28
2022-08-27T07:19:03.765Z,987.30
2022-08-27T07:20:02.239Z,987.28
2022-08-27T07:21:02.229Z,987.26
2022-08-27T07:22:02.228Z,987.32
2022-08-27T07:23:02.204Z,987.31
2022-08-27T07:24:02.217Z,987.28
2022-08-27T07:25:02.200Z,987.27
2022-08-27T07:26:02.291Z,987.35
2022-08-27T07:27:02.169Z,987.31
2022-08-27T07:28:02.161Z,987.35
2022-08-27T07:29:02.166Z,987.33
2022-08-27T07:30:02.135Z,987.34
2022-08-27T07:31:02.295Z,987.31
2022-08-27T07:32:02.114Z,987.30
2022-08-27T07:33:02.106Z,987.33
2022-08-27T07:34:02.109Z,987.38
2022-08-27T07:35:02.081Z,987.39
2022-08-27T07:36:02.118Z,987.36
2022-08-27T07:37:02.081Z,987.36
2022-08-27T07:38:02.057Z,987.34
2022-08-27T07:39:02.233Z,987.32
2022-08-27T07:40:02.130Z,987.34
2022-08-27T07:41:02.096Z,987.35
2022-08-27T07:42:02.013Z,987.37
2022-08-27T07:43:02.002Z,987.32
2022-08-27T07:44:02.013Z,987.37
2022-08-27T07:45:02.002Z,987.36
2022-08-27T07:46:02.145Z,987.33
2022-08-27T07:47:01.970Z,987.37
2022-08-27T07:48:01.965Z,987.41
2022-08-27T07:49:01.956Z,987.36
2022-08-27T07:50:01.930Z,987.37
2022-08-27T07:51:01.970Z,987.42
2022-08-27T07:52:01.908Z,987.40
2022-08-27T07:53:01.950Z,987.41
2022-08-27T07:54:01.924Z,987.37
2022-08-27T07:55:01.876Z,987.41
2022-08-27T07:56:01.913Z,987.45
2022-08-27T07:57:01.858Z,987.45
2022-08-27T07:58:01.853Z,987.47
2022-08-27T07:59:01.857Z,987.45
2022-08-27T08:00:01.828Z,987.49
2022-08-27T08:01:01.955Z,987.45
2022-08-27T08:02:01.869Z,987.46
2022-08-27T08:03:01.792Z,987.45
2022-08-27T08:04:01.816Z,987.42
2022-08-27T08:05:01.772Z,987.42
2022-08-27T08:06:01.766Z,987.43
2022-08-27T08:07:01.758Z,987.43
2022-08-27T08:08:01.750Z,987.44
2022-08-27T08:09:01.744Z,987.44
2022-08-27T08:10:01.722Z,987.45
2022-08-27T08:11:01.721Z,987.46
2022-08-27T08:12:01.700Z,987.46
2022-08-27T08:13:01.694Z,987.50
2022-08-27T08:14:01.695Z,987.48
2022-08-27T08:15:01.670Z,987.54
2022-08-27T08:16:01.674Z,987.51
2022-08-27T08:17:01.709Z,987.50
2022-08-27T08:18:01.651Z,987.54
2022-08-27T08:19:01.642Z,987.55
2022-08-27T08:20:20.022Z,987.57
2022-08-27T08:21:02.603Z,987.56
2022-08-27T08:22:05.539Z,987.57
2022-08-27T08:23:01.583Z,987.61
2022-08-27T08:24:01.592Z,987.53
2022-08-27T08:25:01.579Z,987.61
2022-08-27T08:26:01.558Z,987.61
2022-08-27T08:27:06.374Z,987.58
2022-08-27T08:28:02.531Z,987.57
2022-08-27T08:29:01.520Z,987.59
2022-08-27T08:30:01.529Z,987.59
2022-08-27T08:31:01.740Z,987.59
2022-08-27T08:32:01.492Z,987.61
2022-08-27T08:33:01.480Z,987.55
2022-08-27T08:34:01.479Z,987.58
2022-08-27T08:35:01.479Z,987.60
2022-08-27T08:36:01.450Z,987.59
2022-08-27T08:37:01.444Z,987.67
2022-08-27T08:38:01.433Z,987.60
2022-08-27T08:39:01.418Z,987.67
2022-08-27T08:40:01.497Z,987.65
2022-08-27T08:41:01.413Z,987.62
2022-08-27T08:42:01.394Z,987.66
2022-08-27T08:43:01.393Z,987.63
2022-08-27T08:44:05.451Z,987.65
2022-08-27T08:45:01.372Z,987.64
2022-08-27T08:46:01.400Z,987.63
2022-08-27T08:47:01.353Z,987.63
2022-08-27T08:48:01.355Z,987.63
2022-08-27T08:49:01.327Z,987.68
2022-08-27T08:50:01.321Z,987.68
2022-08-27T08:51:01.296Z,987.70
2022-08-27T08:52:01.289Z,987.72
2022-08-27T08:53:01.831Z,987.71
2022-08-27T08:54:01.266Z,987.71
2022-08-27T08:55:01.266Z,987.73
2022-08-27T08:56:01.244Z,987.76
2022-08-27T08:57:01.238Z,987.73
2022-08-27T08:58:01.224Z,987.75
2022-08-27T08:59:01.224Z,987.73
2022-08-27T09:00:01.265Z,987.73
2022-08-27T09:01:01.297Z,987.75
2022-08-27T09:02:01.184Z,987.76
2022-08-27T09:03:01.180Z,987.75
2022-08-27T09:04:01.272Z,987.72
2022-08-27T09:05:01.164Z,987.72
2022-08-27T09:06:01.148Z,987.74
2022-08-27T09:07:01.137Z,987.73
2022-08-27T09:08:15.383Z,987.70
2022-08-27T09:09:02.134Z,987.72
2022-08-27T09:10:01.131Z,987.75
2022-08-27T09:11:01.090Z,987.71
2022-08-27T09:12:01.094Z,987.70
2022-08-27T09:13:01.088Z,987.73
2022-08-27T09:14:01.064Z,987.72
2022-08-27T09:15:01.060Z,987.68
2022-08-27T09:16:01.043Z,987.71
2022-08-27T09:17:01.146Z,987.73
2022-08-27T09:18:01.015Z,987.72
2022-08-27T09:19:01.007Z,987.75
2022-08-27T09:20:01.283Z,987.75
2022-08-27T09:21:01.005Z,987.73
2022-08-27T09:22:01.983Z,987.75
2022-08-27T09:23:00.984Z,987.76
2022-08-27T09:24:00.955Z,987.71
2022-08-27T09:25:00.964Z,987.78
2022-08-27T09:26:00.945Z,987.76
2022-08-27T09:27:00.927Z,987.79
2022-08-27T09:28:00.912Z,987.80
2022-08-27T09:29:01.818Z,987.83
2022-08-27T09:30:00.892Z,987.82
2022-08-27T09:31:00.982Z,987.82
2022-08-27T09:32:00.874Z,987.84
2022-08-27T09:33:00.869Z,987.89
2022-08-27T09:34:00.850Z,987.83
2022-08-27T09:35:00.849Z,987.89
2022-08-27T09:36:00.850Z,987.89
2022-08-27T09:37:00.819Z,987.86
2022-08-27T09:38:00.817Z,987.87
2022-08-27T09:39:00.796Z,987.89
2022-08-27T09:40:00.811Z,987.89
2022-08-27T09:41:00.799Z,987.92
2022-08-27T09:42:00.770Z,987.89
2022-08-27T09:43:00.754Z,987.92
2022-08-27T09:44:00.757Z,987.95
2022-08-27T09:45:00.736Z,987.95
2022-08-27T09:46:00.843Z,987.93
2022-08-27T09:47:00.713Z,987.91
2022-08-27T09:48:00.702Z,987.92
2022-08-27T09:49:00.709Z,987.95
2022-08-27T09:50:00.680Z,987.93
2022-08-27T09:51:01.699Z,987.94
2022-08-27T09:52:00.683Z,987.93
2022-08-27T09:53:00.655Z,987.93
2022-08-27T09:54:00.657Z,987.90
2022-08-27T09:55:00.631Z,987.90
2022-08-27T09:56:00.657Z,987.90
2022-08-27T09:57:00.609Z,987.91
2022-08-27T09:58:00.600Z,987.93
2022-08-27T09:59:00.590Z,987.93
2022-08-27T10:00:00.582Z,987.94
2022-08-27T10:01:00.701Z,987.96
2022-08-27T10:02:00.556Z,987.95
2022-08-27T10:03:00.551Z,987.95
2022-08-27T10:04:00.596Z,987.94
2022-08-27T10:05:00.522Z,987.95
2022-08-27T10:06:00.553Z,987.96
2022-08-27T10:07:00.515Z,987.96
2022-08-27T10:08:00.516Z,987.88
2022-08-27T10:09:05.084Z,987.89
2022-08-27T10:10:01.472Z,987.89
2022-08-27T10:11:00.479Z,987.92
2022-08-27T10:12:00.458Z,987.87
2022-08-27T10:13:00.446Z,987.87
2022-08-27T10:14:00.445Z,987.86
2022-08-27T10:15:00.442Z,987.89
2022-08-27T10:16:00.422Z,987.90
2022-08-27T10:17:00.403Z,987.89
2022-08-27T10:18:00.457Z,987.87
2022-08-27T10:19:00.393Z,987.89
2022-08-27T10:20:00.384Z,987.89
2022-08-27T10:21:05.448Z,987.90
2022-08-27T10:22:01.349Z,987.84
2022-08-27T10:23:00.336Z,987.89
2022-08-27T10:24:00.335Z,987.94
2022-08-27T10:25:00.326Z,987.98
2022-08-27T10:26:00.365Z,987.92
2022-08-27T10:27:00.296Z,987.95
2022-08-27T10:28:00.332Z,987.97
2022-08-27T10:29:00.274Z,987.95
2022-08-27T10:30:00.317Z,987.93
2022-08-27T10:31:00.267Z,987.90
2022-08-27T10:32:00.344Z,987.94
2022-08-27T10:33:03.788Z,987.92
2022-08-27T10:34:00.229Z,987.95
2022-08-27T10:35:00.232Z,987.95
2022-08-27T10:36:00.229Z,987.92
2022-08-27T10:37:00.198Z,987.84
2022-08-27T10:38:00.252Z,987.83
2022-08-27T10:39:00.167Z,987.86
2022-08-27T10:40:00.246Z,987.84
2022-08-27T10:41:00.180Z,987.87
2022-08-27T10:42:00.847Z,987.85
2022-08-27T10:43:00.126Z,987.82
2022-08-27T10:44:00.119Z,987.89
2022-08-27T10:45:00.118Z,987.90
2022-08-27T10:46:00.244Z,987.92
2022-08-27T10:47:00.110Z,987.86
2022-08-27T10:48:01.092Z,987.87
2022-08-27T10:49:00.067Z,987.90
2022-08-27T10:50:00.055Z,987.93
2022-08-27T10:51:00.039Z,987.88
2022-08-27T10:52:00.053Z,987.88
2022-08-27T10:53:00.021Z,987.92
2022-08-27T10:54:00.015Z,987.89
2022-08-27T10:55:00.002Z,987.88
2022-08-27T10:55:59.994Z,987.89
2022-08-27T10:57:21.733Z,987.93
2022-08-27T10:58:01.865Z,987.90
2022-08-27T10:58:59.958Z,987.92
2022-08-27T10:59:59.948Z,987.93
2022-08-27T11:00:59.993Z,988.01
2022-08-27T11:02:00.070Z,988.01
2022-08-27T11:02:59.916Z,988.03
2022-08-27T11:03:59.910Z,988.04
2022-08-27T11:04:59.896Z,988.06
2022-08-27T11:05:59.897Z,988.05
2022-08-27T11:06:59.890Z,988.07
2022-08-27T11:07:59.876Z,988.05
2022-08-27T11:08:59.851Z,988.02
2022-08-27T11:10:00.840Z,988.05
2022-08-27T11:11:11.744Z,988.04
2022-08-27T11:12:16.147Z,988.04
2022-08-27T11:13:00.813Z,988.08
2022-08-27T11:14:01.170Z,988.03
2022-08-27T11:14:59.791Z,988.00
2022-08-27T11:15:59.816Z,988.05
2022-08-27T11:16:59.790Z,988.06
2022-08-27T11:17:59.774Z,988.04
2022-08-27T11:18:59.757Z,988.06
2022-08-27T11:19:59.741Z,988.07
2022-08-27T11:20:59.748Z,988.06
2022-08-27T11:21:59.715Z,988.07
2022-08-27T11:22:59.716Z,988.06
2022-08-27T11:23:59.696Z,988.01
2022-08-27T11:24:59.690Z,988.05
2022-08-27T11:26:02.441Z,988.05
2022-08-27T11:26:59.664Z,988.07
2022-08-27T11:27:59.654Z,988.03
2022-08-27T11:28:59.648Z,988.05
2022-08-27T11:30:00.059Z,988.08
2022-08-27T11:30:59.639Z,987.96
2022-08-27T11:31:59.660Z,988.01
2022-08-27T11:32:59.603Z,987.99
2022-08-27T11:33:59.601Z,987.99
2022-08-27T11:34:59.590Z,987.95
2022-08-27T11:35:59.585Z,987.98
2022-08-27T11:36:59.562Z,988.01
2022-08-27T11:37:59.549Z,988.00
2022-08-27T11:38:59.542Z,988.02
2022-08-27T11:39:59.548Z,988.01
2022-08-27T11:40:59.666Z,987.97
2022-08-27T11:41:59.512Z,987.99
2022-08-27T11:42:59.502Z,987.98
2022-08-27T11:43:59.492Z,987.96
2022-08-27T11:44:59.484Z,987.98
2022-08-27T11:45:59.465Z,988.00
2022-08-27T11:46:59.494Z,988.01
2022-08-27T11:47:59.446Z,987.98
2022-08-27T11:48:59.441Z,988.00
2022-08-27T11:49:59.429Z,987.93
2022-08-27T11:50:59.417Z,987.94
2022-08-27T11:51:59.419Z,988.02
2022-08-27T11:52:59.398Z,987.99
2022-08-27T11:53:59.385Z,987.94
2022-08-27T11:54:59.374Z,987.93
2022-08-27T11:55:59.362Z,987.93
2022-08-27T11:56:59.368Z,987.92
2022-08-27T11:57:59.344Z,987.95
2022-08-27T11:58:59.338Z,987.94
2022-08-27T11:59:59.325Z,987.97
2022-08-27T12:01:04.290Z,987.94
2022-08-27T12:02:00.312Z,987.96
2022-08-27T12:02:59.352Z,987.99
2022-08-27T12:03:59.309Z,987.95
2022-08-27T12:04:59.273Z,987.99
2022-08-27T12:05:59.282Z,987.97
2022-08-27T12:06:59.269Z,988.00
2022-08-27T12:07:59.239Z,988.00
2022-08-27T12:08:59.228Z,988.00
2022-08-27T12:09:59.216Z,988.01
2022-08-27T12:10:59.208Z,988.05
2022-08-27T12:11:59.212Z,988.02
2022-08-27T12:13:00.651Z,988.04
2022-08-27T12:13:59.175Z,988.04
2022-08-27T12:14:59.171Z,988.07
2022-08-27T12:15:59.232Z,988.05
2022-08-27T12:16:59.178Z,988.05
2022-08-27T12:17:59.133Z,988.04
2022-08-27T12:18:59.126Z,988.05
2022-08-27T12:19:59.113Z,988.08
2022-08-27T12:20:59.116Z,988.07
2022-08-27T12:21:59.089Z,988.05
2022-08-27T12:22:59.080Z,988.07
2022-08-27T12:23:59.068Z,988.04
2022-08-27T12:24:59.068Z,988.05
2022-08-27T12:25:59.060Z,988.04
2022-08-27T12:26:59.050Z,988.00
2022-08-27T12:27:59.038Z,988.07